sensor_id;sensor_type;location;lat;lon;timestamp;temperature;humidity
47148;DHT22;32900;47.498;8.738;2022-08-30T00:00:50;19.10;99.90
47148;DHT22;32900;47.498;8.738;2022-08-30T00:03:40;19.10;99.90
47148;DHT22;32900;47.498;8.738;2022-08-30T00:06:08;19.10;99.90
47148;DHT22;32900;47.498;8.738;2022-08-30T00:08:35;19.10;99.90
47148;DHT22;32900;47.498;8.738;2022-08-30T00:11:04;19.20;99.90
47148;DHT22;32900;47.498;8.738;2022-08-30T00:13:32;19.10;99.90
47148;DHT22;32900;47.498;8.738;2022-08-30T00:15:58;19.10;99.90
47148;DHT22;32900;47.498;8.738;2022-08-30T00:18:25;19.10;99.90
47148;DHT22;32900;47.498;8.738;2022-08-30T00:20:52;19.00;99.90
47148;DHT22;32900;47.498;8.738;2022-08-30T00:23:21;19.00;99.90
47148;DHT22;32900;47.498;8.738;2022-08-30T00:25:48;19.00;99.90
47148;DHT22;32900;47.498;8.738;2022-08-30T00:28:14;18.90;99.90
47148;DHT22;32900;47.498;8.738;2022-08-30T00:30:43;18.90;99.90
47148;DHT22;32900;47.498;8.738;2022-08-30T00:33:12;18.80;99.90
47148;DHT22;32900;47.498;8.738;2022-08-30T00:35:39;18.70;99.90
47148;DHT22;32900;47.498;8.738;2022-08-30T00:38:08;18.70;99.90
47148;DHT22;32900;47.498;8.738;2022-08-30T00:40:35;18.70;99.90
47148;DHT22;32900;47.498;8.738;2022-08-30T00:43:07;18.70;99.90
47148;DHT22;32900;47.498;8.738;2022-08-30T00:45:39;18.60;99.90
47148;DHT22;32900;47.498;8.738;2022-08-30T00:48:06;18.60;99.90
47148;DHT22;32900;47.498;8.738;2022-08-30T00:50:48;18.60;99.90
47148;DHT22;32900;47.498;8.738;2022-08-30T00:53:19;18.60;99.90
47148;DHT22;32900;47.498;8.738;2022-08-30T00:55:47;18.60;99.90
47148;DHT22;32900;47.498;8.738;2022-08-30T00:58:18;18.60;99.90
47148;DHT22;32900;47.498;8.738;2022-08-30T01:00:49;18.60;99.90
47148;DHT22;32900;47.498;8.738;2022-08-30T01:03:17;18.50;99.90
47148;DHT22;32900;47.498;8.738;2022-08-30T01:05:45;18.50;99.90
47148;DHT22;32900;47.498;8.738;2022-08-30T01:08:13;18.50;99.90
47148;DHT22;32900;47.498;8.738;2022-08-30T01:10:41;18.40;99.90
47148;DHT22;32900;47.498;8.738;2022-08-30T01:13:10;18.60;99.90
47148;DHT22;32900;47.498;8.738;2022-08-30T01:15:40;18.60;99.90
47148;DHT22;32900;47.498;8.738;2022-08-30T01:18:08;18.60;99.90
47148;DHT22;32900;47.498;8.738;2022-08-30T01:20:51;18.50;99.90
47148;DHT22;32900;47.498;8.738;2022-08-30T01:23:21;18.50;99.90
47148;DHT22;32900;47.498;8.738;2022-08-30T01:25:51;18.50;99.90
47148;DHT22;32900;47.498;8.738;2022-08-30T01:28:23;18.40;99.90
47148;DHT22;32900;47.498;8.738;2022-08-30T01:30:51;18.40;99.90
47148;DHT22;32900;47.498;8.738;2022-08-30T01:33:21;18.30;99.90
47148;DHT22;32900;47.498;8.738;2022-08-30T01:35:55;18.40;99.90
47148;DHT22;32900;47.498;8.738;2022-08-30T01:38:28;18.20;99.90
47148;DHT22;32900;47.498;8.738;2022-08-30T01:41:08;18.10;99.90
47148;DHT22;32900;47.498;8.738;2022-08-30T01:43:36;18.10;99.90
47148;DHT22;32900;47.498;8.738;2022-08-30T01:46:03;18.20;99.90
47148;DHT22;32900;47.498;8.738;2022-08-30T01:48:30;18.20;99.90
47148;DHT22;32900;47.498;8.738;2022-08-30T01:50:57;18.20;99.90
47148;DHT22;32900;47.498;8.738;2022-08-30T01:53:24;18.20;99.90
47148;DHT22;32900;47.498;8.738;2022-08-30T01:55:51;18.20;99.90
47148;DHT22;32900;47.498;8.738;2022-08-30T01:58:18;18.30;99.90
47148;DHT22;32900;47.498;8.738;2022-08-30T02:00:45;18.20;99.90
47148;DHT22;32900;47.498;8.738;2022-08-30T02:03:11;18.10;99.90
47148;DHT22;32900;47.498;8.738;2022-08-30T02:05:39;18.10;99.90
47148;DHT22;32900;47.498;8.738;2022-08-30T02:08:05;18.10;99.90
47148;DHT22;32900;47.498;8.738;2022-08-30T02:10:32;18.10;99.90
47148;DHT22;32900;47.498;8.738;2022-08-30T02:12:59;18.10;99.90
47148;DHT22;32900;47.498;8.738;2022-08-30T02:15:26;18.20;99.90
47148;DHT22;32900;47.498;8.738;2022-08-30T02:17:53;18.10;99.90
47148;DHT22;32900;47.498;8.738;2022-08-30T02:20:21;18.10;99.90
47148;DHT22;32900;47.498;8.738;2022-08-30T02:58:50;17.70;99.90
47148;DHT22;32900;47.498;8.738;2022-08-30T03:01:17;17.70;99.90
47148;DHT22;32900;47.498;8.738;2022-08-30T03:03:45;17.70;99.90
47148;DHT22;32900;47.498;8.738;2022-08-30T03:06:16;17.70;99.90
47148;DHT22;32900;47.498;8.738;2022-08-30T03:08:43;17.70;99.90
47148;DHT22;32900;47.498;8.738;2022-08-30T03:11:10;17.70;99.90
47148;DHT22;32900;47.498;8.738;2022-08-30T03:13:39;17.70;99.90
47148;DHT22;32900;47.498;8.738;2022-08-30T03:16:06;17.70;99.90
47148;DHT22;32900;47.498;8.738;2022-08-30T03:18:33;17.70;99.90
47148;DHT22;32900;47.498;8.738;2022-08-30T03:20:59;17.80;99.90
47148;DHT22;32900;47.498;8.738;2022-08-30T03:23:26;17.70;99.90
47148;DHT22;32900;47.498;8.738;2022-08-30T03:25:53;17.80;99.90
47148;DHT22;32900;47.498;8.738;2022-08-30T03:28:20;17.80;99.90
47148;DHT22;32900;47.498;8.738;2022-08-30T03:30:47;17.70;99.90
47148;DHT22;32900;47.498;8.738;2022-08-30T03:33:14;17.60;99.90
47148;DHT22;32900;47.498;8.738;2022-08-30T03:35:41;17.20;99.90
47148;DHT22;32900;47.498;8.738;2022-08-30T03:38:08;17.40;99.90
47148;DHT22;32900;47.498;8.738;2022-08-30T03:40:34;17.60;99.90
47148;DHT22;32900;47.498;8.738;2022-08-30T03:43:03;17.60;99.90
47148;DHT22;32900;47.498;8.738;2022-08-30T03:45:31;17.60;99.90
47148;DHT22;32900;47.498;8.738;2022-08-30T03:47:57;17.50;99.90
47148;DHT22;32900;47.498;8.738;2022-08-30T03:50:24;17.50;99.90
47148;DHT22;32900;47.498;8.738;2022-08-30T03:52:51;17.40;99.90
47148;DHT22;32900;47.498;8.738;2022-08-30T03:55:18;17.40;99.90
47148;DHT22;32900;47.498;8.738;2022-08-30T03:57:45;17.40;99.90
47148;DHT22;32900;47.498;8.738;2022-08-30T04:00:13;17.30;99.90
47148;DHT22;32900;47.498;8.738;2022-08-30T04:02:40;17.30;99.90
47148;DHT22;32900;47.498;8.738;2022-08-30T04:05:08;17.40;99.90
47148;DHT22;32900;47.498;8.738;2022-08-30T04:07:35;17.30;99.90
47148;DHT22;32900;47.498;8.738;2022-08-30T04:10:04;17.30;99.90
47148;DHT22;32900;47.498;8.738;2022-08-30T04:12:30;17.40;99.90
47148;DHT22;32900;47.498;8.738;2022-08-30T04:14:57;17.40;99.90
47148;DHT22;32900;47.498;8.738;2022-08-30T04:17:24;17.30;99.90
47148;DHT22;32900;47.498;8.738;2022-08-30T04:19:51;17.40;99.90
47148;DHT22;32900;47.498;8.738;2022-08-30T04:22:17;17.30;99.90
47148;DHT22;32900;47.498;8.738;2022-08-30T04:24:44;17.40;99.90
47148;DHT22;32900;47.498;8.738;2022-08-30T04:27:11;17.40;99.90
47148;DHT22;32900;47.498;8.738;2022-08-30T04:29:38;17.40;99.90
47148;DHT22;32900;47.498;8.738;2022-08-30T04:32:05;17.30;99.90
47148;DHT22;32900;47.498;8.738;2022-08-30T04:34:31;17.40;99.90
47148;DHT22;32900;47.498;8.738;2022-08-30T04:36:58;17.30;99.90
47148;DHT22;32900;47.498;8.738;2022-08-30T04:39:25;17.40;99.90
47148;DHT22;32900;47.498;8.738;2022-08-30T04:41:52;17.30;99.90
47148;DHT22;32900;47.498;8.738;2022-08-30T04:44:18;17.20;99.90
47148;DHT22;32900;47.498;8.738;2022-08-30T04:46:46;17.20;99.90
47148;DHT22;32900;47.498;8.738;2022-08-30T04:49:13;17.30;99.90
47148;DHT22;32900;47.498;8.738;2022-08-30T04:51:40;17.20;99.90
47148;DHT22;32900;47.498;8.738;2022-08-30T04:54:07;17.20;99.90
47148;DHT22;32900;47.498;8.738;2022-08-30T04:56:41;17.10;99.90
47148;DHT22;32900;47.498;8.738;2022-08-30T04:59:09;17.10;99.90
47148;DHT22;32900;47.498;8.738;2022-08-30T05:01:36;17.20;99.90
47148;DHT22;32900;47.498;8.738;2022-08-30T05:04:12;17.20;99.90
47148;DHT22;32900;47.498;8.738;2022-08-30T05:06:39;17.20;99.90
47148;DHT22;32900;47.498;8.738;2022-08-30T05:09:06;17.10;99.90
47148;DHT22;32900;47.498;8.738;2022-08-30T05:11:33;17.20;99.90
47148;DHT22;32900;47.498;8.738;2022-08-30T05:13:59;17.20;99.90
47148;DHT22;32900;47.498;8.738;2022-08-30T05:16:26;17.20;99.90
47148;DHT22;32900;47.498;8.738;2022-08-30T05:18:53;17.30;99.90
47148;DHT22;32900;47.498;8.738;2022-08-30T05:21:24;17.30;99.90
47148;DHT22;32900;47.498;8.738;2022-08-30T05:23:54;17.30;99.90
47148;DHT22;32900;47.498;8.738;2022-08-30T05:26:24;17.40;99.90
47148;DHT22;32900;47.498;8.738;2022-08-30T05:28:52;17.50;99.90
47148;DHT22;32900;47.498;8.738;2022-08-30T05:31:26;17.40;99.90
47148;DHT22;32900;47.498;8.738;2022-08-30T05:33:54;17.50;99.90
47148;DHT22;32900;47.498;8.738;2022-08-30T05:36:23;17.60;99.90
47148;DHT22;32900;47.498;8.738;2022-08-30T05:38:51;17.70;99.90
47148;DHT22;32900;47.498;8.738;2022-08-30T05:41:20;17.70;99.90
47148;DHT22;32900;47.498;8.738;2022-08-30T05:43:47;17.80;99.90
47148;DHT22;32900;47.498;8.738;2022-08-30T05:46:15;17.80;99.90
47148;DHT22;32900;47.498;8.738;2022-08-30T05:48:45;17.80;99.90
47148;DHT22;32900;47.498;8.738;2022-08-30T05:51:18;17.80;99.90
47148;DHT22;32900;47.498;8.738;2022-08-30T05:53:47;17.90;99.90
47148;DHT22;32900;47.498;8.738;2022-08-30T05:56:17;17.90;99.90
47148;DHT22;32900;47.498;8.738;2022-08-30T05:58:44;17.80;99.90
47148;DHT22;32900;47.498;8.738;2022-08-30T06:01:28;17.90;99.90
47148;DHT22;32900;47.498;8.738;2022-08-30T06:03:56;18.10;99.90
47148;DHT22;32900;47.498;8.738;2022-08-30T06:06:31;18.00;99.90
47148;DHT22;32900;47.498;8.738;2022-08-30T06:08:59;18.30;99.90
47148;DHT22;32900;47.498;8.738;2022-08-30T06:11:29;18.20;99.90
47148;DHT22;32900;47.498;8.738;2022-08-30T06:13:56;18.20;99.90
47148;DHT22;32900;47.498;8.738;2022-08-30T06:16:24;18.20;99.90
47148;DHT22;32900;47.498;8.738;2022-08-30T06:18:53;18.20;99.90
47148;DHT22;32900;47.498;8.738;2022-08-30T06:21:23;18.20;99.90
47148;DHT22;32900;47.498;8.738;2022-08-30T06:23:51;18.20;99.90
47148;DHT22;32900;47.498;8.738;2022-08-30T06:26:19;18.20;99.90
47148;DHT22;32900;47.498;8.738;2022-08-30T06:28:46;18.20;99.90
47148;DHT22;32900;47.498;8.738;2022-08-30T06:31:15;18.20;99.90
47148;DHT22;32900;47.498;8.738;2022-08-30T06:33:42;18.30;99.90
47148;DHT22;32900;47.498;8.738;2022-08-30T06:36:13;18.30;99.90
47148;DHT22;32900;47.498;8.738;2022-08-30T06:38:41;18.40;99.90
47148;DHT22;32900;47.498;8.738;2022-08-30T06:41:10;18.40;99.90
47148;DHT22;32900;47.498;8.738;2022-08-30T06:43:38;18.50;99.90
47148;DHT22;32900;47.498;8.738;2022-08-30T06:46:08;18.50;99.90
47148;DHT22;32900;47.498;8.738;2022-08-30T06:48:35;18.60;99.90
47148;DHT22;32900;47.498;8.738;2022-08-30T06:51:03;18.60;99.90
47148;DHT22;32900;47.498;8.738;2022-08-30T06:53:30;18.50;99.90
47148;DHT22;32900;47.498;8.738;2022-08-30T06:55:59;18.50;99.90
47148;DHT22;32900;47.498;8.738;2022-08-30T06:58:27;18.70;99.90
47148;DHT22;32900;47.498;8.738;2022-08-30T07:00:55;18.70;99.90
47148;DHT22;32900;47.498;8.738;2022-08-30T07:03:23;18.70;99.90
47148;DHT22;32900;47.498;8.738;2022-08-30T07:05:50;18.70;99.90
47148;DHT22;32900;47.498;8.738;2022-08-30T07:08:17;18.80;99.90
47148;DHT22;32900;47.498;8.738;2022-08-30T07:10:45;18.70;99.90
47148;DHT22;32900;47.498;8.738;2022-08-30T07:13:12;19.00;99.90
47148;DHT22;32900;47.498;8.738;2022-08-30T07:15:41;19.00;99.90
47148;DHT22;32900;47.498;8.738;2022-08-30T07:18:09;19.10;99.90
47148;DHT22;32900;47.498;8.738;2022-08-30T07:20:55;19.30;99.90
47148;DHT22;32900;47.498;8.738;2022-08-30T07:23:22;19.30;99.90
47148;DHT22;32900;47.498;8.738;2022-08-30T07:25:49;19.50;99.90
47148;DHT22;32900;47.498;8.738;2022-08-30T07:28:16;19.50;99.90
47148;DHT22;32900;47.498;8.738;2022-08-30T07:30:43;19.60;99.90
47148;DHT22;32900;47.498;8.738;2022-08-30T07:33:09;19.70;99.90
47148;DHT22;32900;47.498;8.738;2022-08-30T07:35:36;19.80;99.90
47148;DHT22;32900;47.498;8.738;2022-08-30T07:38:03;19.90;99.90
47148;DHT22;32900;47.498;8.738;2022-08-30T07:40:30;19.90;99.90
47148;DHT22;32900;47.498;8.738;2022-08-30T07:42:57;20.00;99.90
47148;DHT22;32900;47.498;8.738;2022-08-30T07:45:27;20.20;99.90
47148;DHT22;32900;47.498;8.738;2022-08-30T07:47:54;20.20;99.90
47148;DHT22;32900;47.498;8.738;2022-08-30T07:50:20;20.20;99.90
47148;DHT22;32900;47.498;8.738;2022-08-30T07:52:47;20.30;99.90
47148;DHT22;32900;47.498;8.738;2022-08-30T07:55:14;20.40;99.90
47148;DHT22;32900;47.498;8.738;2022-08-30T07:57:41;20.40;99.90
47148;DHT22;32900;47.498;8.738;2022-08-30T08:00:09;20.40;99.90
47148;DHT22;32900;47.498;8.738;2022-08-30T08:02:36;20.40;99.90
47148;DHT22;32900;47.498;8.738;2022-08-30T08:05:03;20.50;99.90
47148;DHT22;32900;47.498;8.738;2022-08-30T08:07:30;20.70;99.90
47148;DHT22;32900;47.498;8.738;2022-08-30T08:09:57;20.70;99.90
47148;DHT22;32900;47.498;8.738;2022-08-30T08:12:24;20.80;99.90
47148;DHT22;32900;47.498;8.738;2022-08-30T08:14:51;20.90;99.90
47148;DHT22;32900;47.498;8.738;2022-08-30T08:17:18;21.00;99.90
47148;DHT22;32900;47.498;8.738;2022-08-30T08:19:45;21.10;99.90
47148;DHT22;32900;47.498;8.738;2022-08-30T08:22:12;21.10;99.90
47148;DHT22;32900;47.498;8.738;2022-08-30T08:24:48;21.10;99.90
47148;DHT22;32900;47.498;8.738;2022-08-30T08:27:15;21.20;99.90
47148;DHT22;32900;47.498;8.738;2022-08-30T08:29:42;21.20;99.90
47148;DHT22;32900;47.498;8.738;2022-08-30T08:32:09;21.30;99.90
47148;DHT22;32900;47.498;8.738;2022-08-30T08:34:36;21.30;99.90
47148;DHT22;32900;47.498;8.738;2022-08-30T08:37:03;21.40;99.90
47148;DHT22;32900;47.498;8.738;2022-08-30T08:39:30;21.50;99.90
47148;DHT22;32900;47.498;8.738;2022-08-30T08:42:17;21.50;99.90
47148;DHT22;32900;47.498;8.738;2022-08-30T08:44:52;21.60;99.90
47148;DHT22;32900;47.498;8.738;2022-08-30T08:49:52;21.60;99.90
47148;DHT22;32900;47.498;8.738;2022-08-30T08:52:30;21.80;99.90
47148;DHT22;32900;47.498;8.738;2022-08-30T08:55:20;21.80;99.90
47148;DHT22;32900;47.498;8.738;2022-08-30T08:57:48;21.90;99.90
47148;DHT22;32900;47.498;8.738;2022-08-30T09:00:15;22.00;99.90
47148;DHT22;32900;47.498;8.738;2022-08-30T09:02:53;22.00;99.90
47148;DHT22;32900;47.498;8.738;2022-08-30T09:05:25;22.30;99.90
47148;DHT22;32900;47.498;8.738;2022-08-30T09:08:13;22.30;99.90
47148;DHT22;32900;47.498;8.738;2022-08-30T09:10:47;22.40;99.90
47148;DHT22;32900;47.498;8.738;2022-08-30T09:13:18;22.40;99.90
47148;DHT22;32900;47.498;8.738;2022-08-30T09:15:49;22.60;99.90
47148;DHT22;32900;47.498;8.738;2022-08-30T09:18:39;22.80;99.90
47148;DHT22;32900;47.498;8.738;2022-08-30T09:21:08;22.90;99.90
47148;DHT22;32900;47.498;8.738;2022-08-30T09:23:35;22.90;99.90
47148;DHT22;32900;47.498;8.738;2022-08-30T09:26:08;22.80;99.90
47148;DHT22;32900;47.498;8.738;2022-08-30T09:28:50;22.70;99.90
47148;DHT22;32900;47.498;8.738;2022-08-30T09:33:59;22.70;99.90
47148;DHT22;32900;47.498;8.738;2022-08-30T09:39:04;22.60;99.90
47148;DHT22;32900;47.498;8.738;2022-08-30T09:41:45;22.70;99.90
47148;DHT22;32900;47.498;8.738;2022-08-30T09:44:15;22.80;99.90
47148;DHT22;32900;47.498;8.738;2022-08-30T09:46:51;23.00;99.90
47148;DHT22;32900;47.498;8.738;2022-08-30T09:49:33;23.10;99.90
47148;DHT22;32900;47.498;8.738;2022-08-30T10:00:28;23.30;99.90
47148;DHT22;32900;47.498;8.738;2022-08-30T10:06:21;23.50;99.90
47148;DHT22;32900;47.498;8.738;2022-08-30T10:11:45;23.40;99.90
47148;DHT22;32900;47.498;8.738;2022-08-30T10:17:11;23.40;99.90
47148;DHT22;32900;47.498;8.738;2022-08-30T10:23:06;23.60;99.90
47148;DHT22;32900;47.498;8.738;2022-08-30T10:25:42;23.70;99.90
47148;DHT22;32900;47.498;8.738;2022-08-30T10:30:44;24.00;99.90
47148;DHT22;32900;47.498;8.738;2022-08-30T10:33:18;24.10;99.90
47148;DHT22;32900;47.498;8.738;2022-08-30T10:35:50;24.20;99.90
47148;DHT22;32900;47.498;8.738;2022-08-30T10:38:36;24.30;99.90
47148;DHT22;32900;47.498;8.738;2022-08-30T10:49:25;24.60;99.90
47148;DHT22;32900;47.498;8.738;2022-08-30T10:54:52;25.00;99.90
47148;DHT22;32900;47.498;8.738;2022-08-30T10:57:20;24.80;99.90
47148;DHT22;32900;47.498;8.738;2022-08-30T10:59:58;24.50;99.90
47148;DHT22;32900;47.498;8.738;2022-08-30T11:10:38;25.50;99.90
47148;DHT22;32900;47.498;8.738;2022-08-30T11:13:20;25.50;99.90
47148;DHT22;32900;47.498;8.738;2022-08-30T11:15:58;25.50;99.90
47148;DHT22;32900;47.498;8.738;2022-08-30T11:18:28;25.70;99.90
47148;DHT22;32900;47.498;8.738;2022-08-30T11:21:18;25.90;99.90
47148;DHT22;32900;47.498;8.738;2022-08-30T11:39:57;25.90;99.90
47148;DHT22;32900;47.498;8.738;2022-08-30T11:42:33;25.90;99.90
47148;DHT22;32900;47.498;8.738;2022-08-30T11:48:05;26.20;99.90
47148;DHT22;32900;47.498;8.738;2022-08-30T11:50:49;26.20;99.90
47148;DHT22;32900;47.498;8.738;2022-08-30T11:53:32;26.00;99.90
47148;DHT22;32900;47.498;8.738;2022-08-30T11:56:06;25.80;99.90
47148;DHT22;32900;47.498;8.738;2022-08-30T11:58:53;25.70;99.90
47148;DHT22;32900;47.498;8.738;2022-08-30T12:04:25;25.80;99.90
47148;DHT22;32900;47.498;8.738;2022-08-30T12:06:59;25.80;99.90
47148;DHT22;32900;47.498;8.738;2022-08-30T12:12:05;26.60;99.90
47148;DHT22;32900;47.498;8.738;2022-08-30T12:17:17;26.60;99.90
47148;DHT22;32900;47.498;8.738;2022-08-30T12:20:10;26.60;99.90
47148;DHT22;32900;47.498;8.738;2022-08-30T12:22:40;26.90;99.90
47148;DHT22;32900;47.498;8.738;2022-08-30T12:25:20;27.10;99.90
47148;DHT22;32900;47.498;8.738;2022-08-30T12:27:49;27.20;99.90
47148;DHT22;32900;47.498;8.738;2022-08-30T12:30:24;27.80;99.90
47148;DHT22;32900;47.498;8.738;2022-08-30T12:32:53;28.10;99.90
47148;DHT22;32900;47.498;8.738;2022-08-30T12:35:25;28.60;99.90
47148;DHT22;32900;47.498;8.738;2022-08-30T12:38:03;28.10;99.90
47148;DHT22;32900;47.498;8.738;2022-08-30T12:40:33;27.30;99.90
47148;DHT22;32900;47.498;8.738;2022-08-30T12:43:04;26.70;99.90
47148;DHT22;32900;47.498;8.738;2022-08-30T12:45:42;26.70;99.90
47148;DHT22;32900;47.498;8.738;2022-08-30T12:48:14;27.60;99.90
47148;DHT22;32900;47.498;8.738;2022-08-30T12:53:28;28.90;99.90
47148;DHT22;32900;47.498;8.738;2022-08-30T12:56:01;29.00;99.90
47148;DHT22;32900;47.498;8.738;2022-08-30T12:58:50;28.90;99.90
47148;DHT22;32900;47.498;8.738;2022-08-30T13:04:18;29.80;99.90
47148;DHT22;32900;47.498;8.738;2022-08-30T13:07:02;29.90;99.90
47148;DHT22;32900;47.498;8.738;2022-08-30T13:09:33;29.90;99.90
47148;DHT22;32900;47.498;8.738;2022-08-30T13:12:20;30.20;99.90
47148;DHT22;32900;47.498;8.738;2022-08-30T13:14:48;30.30;99.90
47148;DHT22;32900;47.498;8.738;2022-08-30T13:20:19;30.20;99.90
47148;DHT22;32900;47.498;8.738;2022-08-30T13:23:04;29.90;99.90
47148;DHT22;32900;47.498;8.738;2022-08-30T13:25:33;30.60;99.90
47148;DHT22;32900;47.498;8.738;2022-08-30T13:28:00;31.00;99.90
47148;DHT22;32900;47.498;8.738;2022-08-30T13:30:28;31.20;99.90
47148;DHT22;32900;47.498;8.738;2022-08-30T13:32:56;31.50;99.90
47148;DHT22;32900;47.498;8.738;2022-08-30T13:35:23;31.70;99.90
47148;DHT22;32900;47.498;8.738;2022-08-30T13:37:50;31.60;99.90
47148;DHT22;32900;47.498;8.738;2022-08-30T13:40:19;31.60;99.90
47148;DHT22;32900;47.498;8.738;2022-08-30T13:42:46;31.80;99.90
47148;DHT22;32900;47.498;8.738;2022-08-30T13:45:14;31.70;99.90
47148;DHT22;32900;47.498;8.738;2022-08-30T13:48:02;31.60;98.80
47148;DHT22;32900;47.498;8.738;2022-08-30T13:50:29;31.40;99.90
47148;DHT22;32900;47.498;8.738;2022-08-30T13:52:56;31.70;99.90
47148;DHT22;32900;47.498;8.738;2022-08-30T13:55:23;32.30;99.40
47148;DHT22;32900;47.498;8.738;2022-08-30T13:57:50;32.30;98.90
47148;DHT22;32900;47.498;8.738;2022-08-30T14:00:22;32.50;99.60
47148;DHT22;32900;47.498;8.738;2022-08-30T14:02:49;32.30;99.10
47148;DHT22;32900;47.498;8.738;2022-08-30T14:05:26;32.50;99.00
47148;DHT22;32900;47.498;8.738;2022-08-30T14:08:21;32.40;99.20
47148;DHT22;32900;47.498;8.738;2022-08-30T14:11:09;32.60;98.80
47148;DHT22;32900;47.498;8.738;2022-08-30T14:13:39;32.20;99.90
47148;DHT22;32900;47.498;8.738;2022-08-30T14:16:26;31.90;99.00
47148;DHT22;32900;47.498;8.738;2022-08-30T14:18:54;31.80;99.50
47148;DHT22;32900;47.498;8.738;2022-08-30T14:21:21;31.50;98.70
47148;DHT22;32900;47.498;8.738;2022-08-30T14:23:51;31.70;98.40
47148;DHT22;32900;47.498;8.738;2022-08-30T14:26:40;31.80;98.90
47148;DHT22;32900;47.498;8.738;2022-08-30T14:29:14;31.80;97.90
47148;DHT22;32900;47.498;8.738;2022-08-30T14:31:41;31.50;95.70
47148;DHT22;32900;47.498;8.738;2022-08-30T14:34:10;32.00;98.50
47148;DHT22;32900;47.498;8.738;2022-08-30T14:36:39;32.50;96.20
47148;DHT22;32900;47.498;8.738;2022-08-30T14:39:09;32.90;95.70
47148;DHT22;32900;47.498;8.738;2022-08-30T14:41:42;32.60;96.00
47148;DHT22;32900;47.498;8.738;2022-08-30T14:44:13;31.80;96.20
47148;DHT22;32900;47.498;8.738;2022-08-30T14:46:41;31.20;97.30
47148;DHT22;32900;47.498;8.738;2022-08-30T14:49:09;30.70;96.00
47148;DHT22;32900;47.498;8.738;2022-08-30T14:51:39;30.20;96.40
47148;DHT22;32900;47.498;8.738;2022-08-30T14:54:06;29.90;99.70
47148;DHT22;32900;47.498;8.738;2022-08-30T14:56:33;30.00;98.10
47148;DHT22;32900;47.498;8.738;2022-08-30T14:59:00;29.60;97.60
47148;DHT22;32900;47.498;8.738;2022-08-30T15:01:29;29.60;97.30
47148;DHT22;32900;47.498;8.738;2022-08-30T15:03:57;29.60;98.80
47148;DHT22;32900;47.498;8.738;2022-08-30T15:06:25;29.60;98.50
47148;DHT22;32900;47.498;8.738;2022-08-30T15:08:53;29.60;98.30
47148;DHT22;32900;47.498;8.738;2022-08-30T15:11:22;29.80;99.00
47148;DHT22;32900;47.498;8.738;2022-08-30T15:13:51;29.80;98.80
47148;DHT22;32900;47.498;8.738;2022-08-30T15:16:28;30.20;99.30
47148;DHT22;32900;47.498;8.738;2022-08-30T15:18:58;30.30;99.50
47148;DHT22;32900;47.498;8.738;2022-08-30T15:21:34;30.80;99.40
47148;DHT22;32900;47.498;8.738;2022-08-30T15:24:03;30.70;99.00
47148;DHT22;32900;47.498;8.738;2022-08-30T15:26:31;30.50;99.70
47148;DHT22;32900;47.498;8.738;2022-08-30T15:28:58;30.60;98.50
47148;DHT22;32900;47.498;8.738;2022-08-30T15:31:26;30.70;99.10
47148;DHT22;32900;47.498;8.738;2022-08-30T15:34:00;31.10;99.30
47148;DHT22;32900;47.498;8.738;2022-08-30T15:36:28;31.60;97.60
47148;DHT22;32900;47.498;8.738;2022-08-30T15:38:55;31.90;95.50
47148;DHT22;32900;47.498;8.738;2022-08-30T15:41:22;31.70;96.60
47148;DHT22;32900;47.498;8.738;2022-08-30T15:43:50;31.70;96.80
47148;DHT22;32900;47.498;8.738;2022-08-30T15:46:25;32.00;96.00
47148;DHT22;32900;47.498;8.738;2022-08-30T15:48:59;32.60;95.90
47148;DHT22;32900;47.498;8.738;2022-08-30T15:51:26;32.40;94.80
47148;DHT22;32900;47.498;8.738;2022-08-30T15:53:56;32.60;94.90
47148;DHT22;32900;47.498;8.738;2022-08-30T15:56:23;32.50;94.40
47148;DHT22;32900;47.498;8.738;2022-08-30T15:58:50;32.20;95.20
47148;DHT22;32900;47.498;8.738;2022-08-30T16:01:19;32.00;95.20
47148;DHT22;32900;47.498;8.738;2022-08-30T16:03:56;31.70;96.80
47148;DHT22;32900;47.498;8.738;2022-08-30T16:06:29;32.00;96.10
47148;DHT22;32900;47.498;8.738;2022-08-30T16:08:57;31.60;96.10
47148;DHT22;32900;47.498;8.738;2022-08-30T16:11:25;31.70;95.50
47148;DHT22;32900;47.498;8.738;2022-08-30T16:13:54;31.20;95.20
47148;DHT22;32900;47.498;8.738;2022-08-30T16:16:22;31.00;96.00
47148;DHT22;32900;47.498;8.738;2022-08-30T16:18:51;30.50;96.50
47148;DHT22;32900;47.498;8.738;2022-08-30T16:21:31;30.40;96.50
47148;DHT22;32900;47.498;8.738;2022-08-30T16:24:00;30.30;96.70
47148;DHT22;32900;47.498;8.738;2022-08-30T16:26:29;29.80;96.60
47148;DHT22;32900;47.498;8.738;2022-08-30T16:28:57;29.30;97.30
47148;DHT22;32900;47.498;8.738;2022-08-30T16:31:25;28.70;98.10
47148;DHT22;32900;47.498;8.738;2022-08-30T16:33:53;28.30;97.90
47148;DHT22;32900;47.498;8.738;2022-08-30T16:36:28;27.90;97.60
47148;DHT22;32900;47.498;8.738;2022-08-30T16:38:55;27.80;98.20
47148;DHT22;32900;47.498;8.738;2022-08-30T16:41:24;27.80;98.80
47148;DHT22;32900;47.498;8.738;2022-08-30T16:43:51;27.60;99.00
47148;DHT22;32900;47.498;8.738;2022-08-30T16:46:20;27.30;99.90
47148;DHT22;32900;47.498;8.738;2022-08-30T16:48:55;27.20;99.80
47148;DHT22;32900;47.498;8.738;2022-08-30T16:51:24;27.20;99.90
47148;DHT22;32900;47.498;8.738;2022-08-30T16:53:53;27.20;99.90
47148;DHT22;32900;47.498;8.738;2022-08-30T16:56:23;27.10;99.90
47148;DHT22;32900;47.498;8.738;2022-08-30T16:58:53;27.10;99.90
47148;DHT22;32900;47.498;8.738;2022-08-30T17:01:29;26.90;99.90
47148;DHT22;32900;47.498;8.738;2022-08-30T17:03:56;26.80;99.90
47148;DHT22;32900;47.498;8.738;2022-08-30T17:06:23;26.80;99.90
47148;DHT22;32900;47.498;8.738;2022-08-30T17:08:50;26.60;99.90
47148;DHT22;32900;47.498;8.738;2022-08-30T17:11:22;26.50;99.90
47148;DHT22;32900;47.498;8.738;2022-08-30T17:13:49;26.40;99.90
47148;DHT22;32900;47.498;8.738;2022-08-30T17:16:20;26.30;99.90
47148;DHT22;32900;47.498;8.738;2022-08-30T17:18:55;26.20;99.90
47148;DHT22;32900;47.498;8.738;2022-08-30T17:21:29;26.20;99.90
47148;DHT22;32900;47.498;8.738;2022-08-30T17:23:56;26.20;99.90
47148;DHT22;32900;47.498;8.738;2022-08-30T17:26:29;26.10;99.90
47148;DHT22;32900;47.498;8.738;2022-08-30T17:28:57;26.00;99.90
47148;DHT22;32900;47.498;8.738;2022-08-30T17:31:24;26.00;99.90
47148;DHT22;32900;47.498;8.738;2022-08-30T17:33:58;25.80;99.90
47148;DHT22;32900;47.498;8.738;2022-08-30T17:36:33;25.80;99.90
47148;DHT22;32900;47.498;8.738;2022-08-30T17:39:06;25.80;99.90
47148;DHT22;32900;47.498;8.738;2022-08-30T17:41:41;25.70;99.90
47148;DHT22;32900;47.498;8.738;2022-08-30T17:44:15;25.60;99.90
47148;DHT22;32900;47.498;8.738;2022-08-30T17:46:43;25.50;99.90
47148;DHT22;32900;47.498;8.738;2022-08-30T17:49:10;25.40;99.90
47148;DHT22;32900;47.498;8.738;2022-08-30T17:51:39;25.30;99.90